createdAt,value
2018-05-23T00:01:02.754Z,63.60
2018-05-23T00:03:30.747Z,63.50
2018-05-23T00:05:58.259Z,64.10
2018-05-23T00:08:25.772Z,64.20
2018-05-23T00:10:53.286Z,64.50
2018-05-23T00:13:20.802Z,64.00
2018-05-23T00:15:48.321Z,63.80
2018-05-23T00:18:15.837Z,63.80
2018-05-23T00:20:43.343Z,64.10
2018-05-23T00:23:10.855Z,63.70
2018-05-23T00:25:38.869Z,63.70
2018-05-23T00:28:06.761Z,64.60
2018-05-23T00:30:34.276Z,64.50
2018-05-23T00:33:02.607Z,64.00
2018-05-23T00:35:30.132Z,64.00
2018-05-23T00:37:57.690Z,63.90
2018-05-23T00:40:25.198Z,64.00
2018-05-23T00:42:52.719Z,64.00
2018-05-23T00:45:20.815Z,64.00
2018-05-23T00:47:48.323Z,64.00
2018-05-23T00:50:16.389Z,64.30
2018-05-23T00:52:43.908Z,64.00
2018-05-23T00:55:24.169Z,64.30
2018-05-23T00:57:51.680Z,64.70
2018-05-23T01:00:20.271Z,64.10
2018-05-23T01:02:47.774Z,64.10
2018-05-23T01:05:15.300Z,63.90
2018-05-23T01:07:42.819Z,64.40
2018-05-23T01:10:10.335Z,64.40
2018-05-23T01:12:37.846Z,64.20
2018-05-23T01:15:05.361Z,64.60
2018-05-23T01:17:32.867Z,64.00
2018-05-23T01:20:01.672Z,64.40
2018-05-23T01:22:29.180Z,64.70
2018-05-23T01:24:56.690Z,64.80
2018-05-23T01:27:24.629Z,65.60
2018-05-23T01:29:52.136Z,64.20
2018-05-23T01:32:19.652Z,64.20
2018-05-23T01:34:47.166Z,64.10
2018-05-23T01:37:14.684Z,64.20
2018-05-23T01:39:42.191Z,64.80
2018-05-23T01:42:10.322Z,64.40
2018-05-23T01:44:37.839Z,64.70
2018-05-23T01:47:05.358Z,64.50
2018-05-23T01:49:32.862Z,64.60
2018-05-23T01:52:00.368Z,64.60
2018-05-23T01:54:28.655Z,64.90
2018-05-23T01:56:56.176Z,64.90
2018-05-23T01:59:23.683Z,64.70
2018-05-23T02:01:51.195Z,65.00
2018-05-23T02:04:18.707Z,65.40
2018-05-23T02:06:46.223Z,65.20
2018-05-23T02:09:13.735Z,65.10
2018-05-23T02:11:41.248Z,65.20
2018-05-23T02:14:08.768Z,65.20
2018-05-23T02:16:36.283Z,65.50
2018-05-23T02:19:03.913Z,65.30
2018-05-23T02:21:31.427Z,65.00
2018-05-23T02:23:58.995Z,65.30
2018-05-23T02:26:26.511Z,65.10
2018-05-23T02:28:54.023Z,65.30
2018-05-23T02:31:21.607Z,65.70
2018-05-23T02:33:49.161Z,65.40
2018-05-23T02:36:16.736Z,65.70
2018-05-23T02:38:44.251Z,65.70
2018-05-23T02:41:11.763Z,65.50
2018-05-23T02:43:39.305Z,66.00
2018-05-23T02:46:06.816Z,66.20
2018-05-23T02:48:34.319Z,66.30
2018-05-23T02:51:01.831Z,66.10
2018-05-23T02:53:29.408Z,66.40
2018-05-23T02:55:57.017Z,66.50
2018-05-23T02:58:24.559Z,66.30
2018-05-23T03:00:52.071Z,66.70
2018-05-23T03:03:19.604Z,66.40
2018-05-23T03:05:47.115Z,66.70
2018-05-23T03:08:14.627Z,67.10
2018-05-23T03:10:42.152Z,66.70
2018-05-23T03:13:09.664Z,67.10
2018-05-23T03:15:37.948Z,66.90
2018-05-23T03:18:05.473Z,66.90
2018-05-23T03:20:32.987Z,66.60
2018-05-23T03:23:00.507Z,66.60
2018-05-23T03:25:28.791Z,66.80
2018-05-23T03:27:56.336Z,66.80
2018-05-23T03:30:23.851Z,66.50
2018-05-23T03:32:51.359Z,66.60
2018-05-23T03:35:18.873Z,66.60
2018-05-23T03:37:46.390Z,66.60
2018-05-23T03:40:13.917Z,67.00
2018-05-23T03:42:41.431Z,67.00
2018-05-23T03:45:08.951Z,67.70
2018-05-23T03:47:36.477Z,68.10
2018-05-23T03:50:03.989Z,67.90
2018-05-23T03:52:31.532Z,67.60
2018-05-23T03:54:59.059Z,67.80
2018-05-23T03:57:27.366Z,68.00
2018-05-23T04:00:06.673Z,68.00
2018-05-23T04:02:45.881Z,68.00
2018-05-23T04:05:25.191Z,67.80
2018-05-23T04:07:53.531Z,68.00
2018-05-23T04:10:21.091Z,68.40
2018-05-23T04:12:48.873Z,68.50
2018-05-23T04:15:16.442Z,68.40
2018-05-23T04:17:43.963Z,68.40
2018-05-23T04:20:11.492Z,68.60
2018-05-23T04:22:39.012Z,68.30
2018-05-23T04:25:06.539Z,68.30
2018-05-23T04:27:34.052Z,68.70
2018-05-23T04:30:01.771Z,69.00
2018-05-23T04:32:29.292Z,68.30
2018-05-23T04:34:56.821Z,68.00
2018-05-23T04:37:24.403Z,67.70
2018-05-23T04:39:51.911Z,67.80
2018-05-23T04:42:19.436Z,67.90
2018-05-23T04:44:46.960Z,67.70
2018-05-23T04:47:15.538Z,67.60
2018-05-23T04:49:43.065Z,67.30
2018-05-23T04:52:10.583Z,67.40
2018-05-23T04:54:38.129Z,67.40
2018-05-23T04:57:05.635Z,67.10
2018-05-23T04:59:33.152Z,66.90
2018-05-23T05:02:00.679Z,66.60
2018-05-23T05:04:28.203Z,66.20
2018-05-23T05:06:55.723Z,66.10
2018-05-23T05:09:23.240Z,65.50
2018-05-23T05:11:50.763Z,63.90
2018-05-23T05:14:18.282Z,63.30
2018-05-23T05:16:45.808Z,64.20
2018-05-23T05:19:13.334Z,64.60
2018-05-23T05:21:40.863Z,64.50
2018-05-23T05:24:08.387Z,63.80
2018-05-23T05:26:36.792Z,63.30
2018-05-23T05:29:04.352Z,63.00
2018-05-23T05:31:31.871Z,62.70
2018-05-23T05:34:00.155Z,61.20
2018-05-23T05:36:27.679Z,61.10
2018-05-23T05:38:55.259Z,60.40
2018-05-23T05:41:22.722Z,60.50
2018-05-23T05:43:51.014Z,60.30
2018-05-23T05:46:18.531Z,60.20
2018-05-23T05:48:46.047Z,60.30
2018-05-23T05:51:13.571Z,60.60
2018-05-23T05:53:41.125Z,60.90
2018-05-23T05:56:08.676Z,60.60
2018-05-23T05:58:36.196Z,60.00
2018-05-23T06:01:03.726Z,59.40
2018-05-23T06:03:31.243Z,59.70
2018-05-23T06:05:58.755Z,59.20
2018-05-23T06:08:26.274Z,58.70
2018-05-23T06:10:53.802Z,58.70
2018-05-23T06:13:21.324Z,58.10
2018-05-23T06:15:48.846Z,58.60
2018-05-23T06:18:16.358Z,57.50
2018-05-23T06:20:43.880Z,56.30
2018-05-23T06:23:11.403Z,55.90
2018-05-23T06:25:38.936Z,55.60
2018-05-23T06:28:06.460Z,54.90
2018-05-23T06:30:33.986Z,54.50
2018-05-23T06:33:02.276Z,53.70
2018-05-23T06:35:30.720Z,53.70
2018-05-23T06:37:58.242Z,52.20
2018-05-23T06:40:26.377Z,52.50
2018-05-23T06:42:53.901Z,53.40
2018-05-23T06:45:21.538Z,52.90
2018-05-23T06:47:49.063Z,51.50
2018-05-23T06:50:16.584Z,51.00
2018-05-23T06:52:44.116Z,50.40
2018-05-23T06:55:11.639Z,51.00
2018-05-23T06:57:39.149Z,50.40
2018-05-23T07:00:06.667Z,50.60
2018-05-23T07:02:34.187Z,50.00
2018-05-23T07:05:01.713Z,49.90
2018-05-23T07:07:29.248Z,49.80
2018-05-23T07:09:56.798Z,51.00
2018-05-23T07:12:24.316Z,50.50
2018-05-23T07:14:52.244Z,50.90
2018-05-23T07:17:19.763Z,51.10
2018-05-23T07:19:47.279Z,49.80
2018-05-23T07:22:15.024Z,49.10
2018-05-23T07:24:42.554Z,48.70
2018-05-23T07:27:10.075Z,48.80
2018-05-23T07:29:37.599Z,50.40
2018-05-23T07:32:05.111Z,49.90
2018-05-23T07:34:32.904Z,49.40
2018-05-23T07:37:00.421Z,48.60
2018-05-23T07:39:27.934Z,47.70
2018-05-23T07:41:55.463Z,48.20
2018-05-23T07:44:23.871Z,47.40
2018-05-23T07:46:51.382Z,46.20
2018-05-23T07:49:19.719Z,45.30
2018-05-23T07:51:47.273Z,45.30
2018-05-23T07:54:14.784Z,45.40
2018-05-23T07:56:42.312Z,45.40
2018-05-23T07:59:09.836Z,45.10
2018-05-23T08:01:37.353Z,44.40
2018-05-23T08:04:04.972Z,42.80
2018-05-23T08:06:32.400Z,43.10
2018-05-23T08:08:59.920Z,43.70
2018-05-23T08:11:27.437Z,42.80
2018-05-23T08:13:54.959Z,39.90
2018-05-23T08:16:22.467Z,38.60
2018-05-23T08:18:49.989Z,39.00
2018-05-23T08:21:17.502Z,38.80
2018-05-23T08:23:45.020Z,38.60
2018-05-23T08:26:12.540Z,38.80
2018-05-23T08:28:40.173Z,39.50
2018-05-23T08:31:07.761Z,39.60
2018-05-23T08:33:35.306Z,39.80
2018-05-23T08:36:03.795Z,40.60
2018-05-23T08:38:31.323Z,41.50
2018-05-23T08:40:58.851Z,41.30
2018-05-23T08:43:27.176Z,42.20
2018-05-23T08:45:54.709Z,42.20
2018-05-23T08:48:22.312Z,42.30
2018-05-23T08:50:49.819Z,42.40
2018-05-23T08:53:18.108Z,43.20
2018-05-23T08:55:46.457Z,43.20
2018-05-23T08:58:13.967Z,42.30
2018-05-23T09:00:41.487Z,41.10
2018-05-23T09:03:09.000Z,40.30
2018-05-23T09:05:36.515Z,39.50
2018-05-23T09:08:04.061Z,38.50
2018-05-23T09:10:31.571Z,38.10
2018-05-23T09:12:59.856Z,37.40
2018-05-23T09:15:27.376Z,37.40
2018-05-23T09:17:54.887Z,37.20
2018-05-23T09:20:22.395Z,38.90
2018-05-23T09:22:49.903Z,39.70
2018-05-23T09:25:17.454Z,39.00
2018-05-23T09:27:44.954Z,38.80
2018-05-23T09:30:12.468Z,38.10
2018-05-23T09:32:39.990Z,38.30
2018-05-23T09:35:07.503Z,38.30
2018-05-23T09:37:35.044Z,38.40
2018-05-23T09:40:02.560Z,38.80
2018-05-23T09:42:30.084Z,38.50
2018-05-23T09:44:58.365Z,38.20
2018-05-23T09:47:25.884Z,38.10
2018-05-23T09:49:53.396Z,37.80
2018-05-23T09:52:20.912Z,38.30
2018-05-23T09:54:48.433Z,37.40
2018-05-23T09:57:15.959Z,36.80
2018-05-23T09:59:43.467Z,36.40
2018-05-23T10:02:10.987Z,36.20
2018-05-23T10:04:38.512Z,36.70
2018-05-23T10:07:06.031Z,36.50
2018-05-23T10:09:34.732Z,36.40
2018-05-23T10:12:02.268Z,36.40
2018-05-23T10:14:29.785Z,36.00
2018-05-23T10:16:57.318Z,36.50
2018-05-23T10:19:24.839Z,36.00
2018-05-23T10:21:52.389Z,36.40
2018-05-23T10:24:19.915Z,36.70
2018-05-23T10:26:47.432Z,36.00
2018-05-23T10:29:14.962Z,35.50
2018-05-23T10:31:42.476Z,36.10
2018-05-23T10:34:09.999Z,36.70
2018-05-23T10:36:37.519Z,37.00
2018-05-23T10:39:05.847Z,36.70
2018-05-23T10:41:33.371Z,36.20
2018-05-23T10:44:00.938Z,36.70
2018-05-23T10:46:28.483Z,37.10
2018-05-23T10:48:56.011Z,37.20
2018-05-23T10:51:23.527Z,36.30
2018-05-23T10:53:51.084Z,36.30
2018-05-23T10:56:19.532Z,37.10
2018-05-23T10:58:47.043Z,37.30
2018-05-23T11:01:14.566Z,36.90
2018-05-23T11:03:42.083Z,36.90
2018-05-23T11:06:09.590Z,37.70
2018-05-23T11:08:37.140Z,38.00
2018-05-23T11:11:04.656Z,38.40
2018-05-23T11:13:32.932Z,37.50
2018-05-23T11:16:00.447Z,37.50
2018-05-23T11:18:27.978Z,38.40
2018-05-23T11:20:55.492Z,37.90
2018-05-23T11:23:23.004Z,38.30
2018-05-23T11:25:50.517Z,38.60
2018-05-23T11:28:18.035Z,38.10
2018-05-23T11:30:45.547Z,38.00
2018-05-23T11:33:13.063Z,38.10
2018-05-23T11:35:40.583Z,38.20
2018-05-23T11:38:08.095Z,38.70
2018-05-23T11:40:35.612Z,39.00
2018-05-23T11:43:03.131Z,38.30
2018-05-23T11:45:30.903Z,37.80
2018-05-23T11:47:58.419Z,38.40
2018-05-23T11:50:25.939Z,37.80
2018-05-23T11:52:54.233Z,38.00
2018-05-23T11:55:21.767Z,37.90
2018-05-23T11:57:49.283Z,37.60
2018-05-23T12:00:16.826Z,37.50
2018-05-23T12:02:44.343Z,37.80
2018-05-23T12:05:11.860Z,37.80
2018-05-23T12:07:39.402Z,37.50
2018-05-23T12:10:06.916Z,38.70
2018-05-23T12:12:34.435Z,39.10
2018-05-23T12:15:01.943Z,40.20
2018-05-23T12:17:29.471Z,39.30
2018-05-23T12:19:56.987Z,39.80
2018-05-23T12:22:24.770Z,39.10
2018-05-23T12:24:52.291Z,39.50
2018-05-23T12:27:19.839Z,39.10
2018-05-23T12:29:47.398Z,38.50
2018-05-23T12:32:14.919Z,38.90
2018-05-23T12:34:42.435Z,38.40
2018-05-23T12:37:09.951Z,39.10
2018-05-23T12:39:37.480Z,39.20
2018-05-23T12:42:05.009Z,39.10
2018-05-23T12:44:32.533Z,39.40
2018-05-23T12:47:00.056Z,39.70
2018-05-23T12:49:27.571Z,38.80
2018-05-23T12:51:55.097Z,38.10
2018-05-23T12:54:22.616Z,37.30
2018-05-23T12:56:50.131Z,37.60
2018-05-23T12:59:17.651Z,37.70
2018-05-23T13:01:45.168Z,37.70
2018-05-23T13:04:12.688Z,37.30
2018-05-23T13:06:40.208Z,37.40
2018-05-23T13:09:07.771Z,36.30
2018-05-23T13:11:36.064Z,36.70
2018-05-23T13:14:03.589Z,36.60
2018-05-23T13:16:31.107Z,37.30
2018-05-23T13:18:58.619Z,37.00
2018-05-23T13:21:26.135Z,37.40
2018-05-23T13:23:53.655Z,36.60
2018-05-23T13:26:21.175Z,36.00
2018-05-23T13:28:48.704Z,36.90
2018-05-23T13:31:16.247Z,36.90
2018-05-23T13:33:43.766Z,36.70
2018-05-23T13:36:11.287Z,36.40
2018-05-23T13:38:38.795Z,36.30
2018-05-23T13:41:06.318Z,36.30
2018-05-23T13:43:34.604Z,36.30
2018-05-23T13:46:02.127Z,35.60
2018-05-23T13:48:29.646Z,35.80
2018-05-23T13:50:57.161Z,35.20
2018-05-23T13:53:24.685Z,35.60
2018-05-23T13:55:52.203Z,35.60
2018-05-23T13:58:19.716Z,35.90
2018-05-23T14:00:47.231Z,35.40
2018-05-23T14:03:14.747Z,36.40
2018-05-23T14:05:42.267Z,35.20
2018-05-23T14:08:09.787Z,35.50
2018-05-23T14:10:37.299Z,36.20
2018-05-23T14:13:04.817Z,35.30
2018-05-23T14:15:32.347Z,35.20
2018-05-23T14:17:59.863Z,35.40
2018-05-23T14:20:27.375Z,35.10
2018-05-23T14:22:54.889Z,35.10
2018-05-23T14:25:22.412Z,36.60
2018-05-23T14:27:49.946Z,35.90
2018-05-23T14:30:17.468Z,36.70
2018-05-23T14:32:44.977Z,34.80
2018-05-23T14:35:12.905Z,34.70
2018-05-23T14:37:40.434Z,34.70
2018-05-23T14:40:07.958Z,34.00
2018-05-23T14:42:35.475Z,34.00
2018-05-23T14:45:02.994Z,34.50
2018-05-23T14:47:30.513Z,34.80
2018-05-23T14:49:58.056Z,34.40
2018-05-23T14:52:25.563Z,35.40
2018-05-23T14:54:53.083Z,35.00
2018-05-23T14:57:20.619Z,35.70
2018-05-23T14:59:48.143Z,35.90
2018-05-23T15:02:15.683Z,35.80
2018-05-23T15:04:43.201Z,35.20
2018-05-23T15:07:10.729Z,34.80
2018-05-23T15:09:38.259Z,34.90
2018-05-23T15:12:05.803Z,34.80
2018-05-23T15:14:34.085Z,35.20
2018-05-23T15:17:01.600Z,35.20
2018-05-23T15:19:29.133Z,35.60
2018-05-23T15:21:56.666Z,35.40
2018-05-23T15:24:24.183Z,36.00
2018-05-23T15:26:52.469Z,35.30
2018-05-23T15:29:20.007Z,35.30
2018-05-23T15:31:47.535Z,35.00
2018-05-23T15:34:15.094Z,35.40
2018-05-23T15:36:42.619Z,35.00
2018-05-23T15:39:10.135Z,35.20
2018-05-23T15:41:37.714Z,34.20
2018-05-23T15:44:05.225Z,34.50
2018-05-23T15:46:33.528Z,33.90
2018-05-23T15:49:01.050Z,33.90
2018-05-23T15:51:28.576Z,34.10
2018-05-23T15:53:56.086Z,33.60
2018-05-23T15:56:24.381Z,33.80
2018-05-23T15:58:51.904Z,33.80
2018-05-23T16:01:19.416Z,34.40
2018-05-23T16:03:46.932Z,34.70
2018-05-23T16:06:15.211Z,33.80
2018-05-23T16:08:42.724Z,33.70
2018-05-23T16:11:10.249Z,33.60
2018-05-23T16:13:37.772Z,33.70
2018-05-23T16:16:05.285Z,33.90
2018-05-23T16:18:32.803Z,33.80
2018-05-23T16:21:00.356Z,33.60
2018-05-23T16:23:27.871Z,33.80
2018-05-23T16:25:55.388Z,34.10
2018-05-23T16:28:22.903Z,34.40
2018-05-23T16:30:50.412Z,34.20
2018-05-23T16:33:17.927Z,34.30
2018-05-23T16:35:45.439Z,34.30
2018-05-23T16:38:12.950Z,35.00
2018-05-23T16:40:40.476Z,34.50
2018-05-23T16:43:08.002Z,35.20
2018-05-23T16:45:35.525Z,34.40
2018-05-23T16:48:03.040Z,34.30
2018-05-23T16:50:30.567Z,34.70
2018-05-23T16:52:58.088Z,34.60
2018-05-23T16:55:25.607Z,34.20
2018-05-23T16:57:54.147Z,34.80
2018-05-23T17:00:21.678Z,34.70
2018-05-23T17:02:49.203Z,34.90
2018-05-23T17:05:16.715Z,35.10
2018-05-23T17:07:44.239Z,34.30
2018-05-23T17:10:11.768Z,34.20
2018-05-23T17:12:39.295Z,33.60
2018-05-23T17:15:06.807Z,32.90
2018-05-23T17:17:35.123Z,32.60
2018-05-23T17:20:02.639Z,32.60
2018-05-23T17:22:30.151Z,32.50
2018-05-23T17:24:57.708Z,33.20
2018-05-23T17:27:25.230Z,33.80
2018-05-23T17:29:53.527Z,33.60
2018-05-23T17:32:21.039Z,33.50
2018-05-23T17:34:48.558Z,34.30
2018-05-23T17:37:16.067Z,34.20
2018-05-23T17:39:43.582Z,33.60
2018-05-23T17:42:11.137Z,33.70
2018-05-23T17:44:38.655Z,33.40
2018-05-23T17:47:06.187Z,33.60
2018-05-23T17:49:33.709Z,33.20
2018-05-23T17:52:01.223Z,33.00
2018-05-23T17:54:28.732Z,33.10
2018-05-23T17:56:56.248Z,33.70
2018-05-23T17:59:24.535Z,33.30
2018-05-23T18:01:52.053Z,33.30
2018-05-23T18:04:19.610Z,33.80
2018-05-23T18:06:47.140Z,34.00
2018-05-23T18:09:14.856Z,34.00
2018-05-23T18:11:42.367Z,34.10
2018-05-23T18:14:09.892Z,34.60
2018-05-23T18:16:38.201Z,34.10
2018-05-23T18:19:06.288Z,34.10
2018-05-23T18:21:33.808Z,34.70
2018-05-23T18:24:02.100Z,34.70
2018-05-23T18:26:30.388Z,34.70
2018-05-23T18:28:57.895Z,34.70
2018-05-23T18:31:25.403Z,34.80
2018-05-23T18:33:53.355Z,34.40
2018-05-23T18:36:20.871Z,34.40
2018-05-23T18:38:48.391Z,34.50
2018-05-23T18:41:15.923Z,35.20
2018-05-23T18:43:43.440Z,34.80
2018-05-23T18:46:10.956Z,34.90
2018-05-23T18:48:39.254Z,35.00
2018-05-23T18:51:06.776Z,35.00
2018-05-23T18:53:34.331Z,35.00
2018-05-23T18:56:01.852Z,35.20
2018-05-23T18:58:29.391Z,35.90
2018-05-23T19:00:56.903Z,36.10
2018-05-23T19:03:24.415Z,36.00
2018-05-23T19:05:51.928Z,36.50
2018-05-23T19:08:19.456Z,36.60
2018-05-23T19:10:47.019Z,36.70
2018-05-23T19:13:14.545Z,37.10
2018-05-23T19:15:42.056Z,36.90
2018-05-23T19:18:09.598Z,38.10
2018-05-23T19:20:37.113Z,38.30
2018-05-23T19:23:05.395Z,38.10
2018-05-23T19:25:33.676Z,38.50
2018-05-23T19:28:01.237Z,38.50
2018-05-23T19:30:28.794Z,38.50
2018-05-23T19:32:56.632Z,39.10
2018-05-23T19:35:24.165Z,39.10
2018-05-23T19:37:51.696Z,39.80
2018-05-23T19:40:19.226Z,39.90
2018-05-23T19:42:46.791Z,40.10
2018-05-23T19:45:14.318Z,40.20
2018-05-23T19:47:41.828Z,40.80
2018-05-23T19:50:09.346Z,41.40
2018-05-23T19:52:36.934Z,41.90
2018-05-23T19:55:04.422Z,43.20
2018-05-23T19:57:31.946Z,41.90
2018-05-23T19:59:59.459Z,41.80
2018-05-23T20:02:27.275Z,42.50
2018-05-23T20:04:55.556Z,42.30
2018-05-23T20:07:23.435Z,42.30
2018-05-23T20:09:51.130Z,41.90
2018-05-23T20:12:18.652Z,42.60
2018-05-23T20:14:46.931Z,42.10
2018-05-23T20:17:14.442Z,42.10
2018-05-23T20:19:41.968Z,42.90
2018-05-23T20:22:09.489Z,42.40
2018-05-23T20:24:37.255Z,43.60
2018-05-23T20:27:05.141Z,44.50
2018-05-23T20:29:32.668Z,45.80
2018-05-23T20:32:00.195Z,46.70
2018-05-23T20:34:27.726Z,45.00
2018-05-23T20:36:55.239Z,44.40
2018-05-23T20:39:22.775Z,44.40
2018-05-23T20:41:50.295Z,45.40
2018-05-23T20:44:19.121Z,46.20
2018-05-23T20:46:46.640Z,46.20
2018-05-23T20:49:14.160Z,45.80
2018-05-23T20:51:41.688Z,46.70
2018-05-23T20:54:09.255Z,45.60
2018-05-23T20:56:36.768Z,45.50
2018-05-23T20:59:04.280Z,45.70
2018-05-23T21:01:31.796Z,45.80
2018-05-23T21:03:59.321Z,44.80
2018-05-23T21:06:26.832Z,46.30
2018-05-23T21:08:54.402Z,47.10
2018-05-23T21:11:21.920Z,46.00
2018-05-23T21:13:49.457Z,46.80
2018-05-23T21:16:16.966Z,46.60
2018-05-23T21:18:44.471Z,46.60
2018-05-23T21:21:12.392Z,45.40
2018-05-23T21:23:39.904Z,46.00
2018-05-23T21:26:07.417Z,46.00
2018-05-23T21:28:34.934Z,46.80
2018-05-23T21:31:02.451Z,47.50
2018-05-23T21:33:30.852Z,46.80
2018-05-23T21:35:58.379Z,47.20
2018-05-23T21:38:26.655Z,46.30
2018-05-23T21:40:54.172Z,46.20
2018-05-23T21:43:21.695Z,45.30
2018-05-23T21:45:49.207Z,45.30
2018-05-23T21:48:16.719Z,45.90
2018-05-23T21:50:44.232Z,45.00
2018-05-23T21:53:11.751Z,45.30
2018-05-23T21:55:39.263Z,45.80
2018-05-23T21:58:06.783Z,45.40
2018-05-23T22:00:34.301Z,45.00
2018-05-23T22:03:01.823Z,45.10
2018-05-23T22:05:29.356Z,45.30
2018-05-23T22:07:56.867Z,44.90
2018-05-23T22:10:25.158Z,45.90
2018-05-23T22:12:52.686Z,45.90
2018-05-23T22:15:20.223Z,47.10
2018-05-23T22:17:47.735Z,45.90
2018-05-23T22:20:15.255Z,45.10
2018-05-23T22:22:42.768Z,46.10
2018-05-23T22:25:10.297Z,46.00
2018-05-23T22:27:37.807Z,46.30
2018-05-23T22:30:05.326Z,45.40
2018-05-23T22:32:32.842Z,44.50
2018-05-23T22:35:00.355Z,44.20
2018-05-23T22:37:27.880Z,44.00
2018-05-23T22:39:55.407Z,44.10
2018-05-23T22:42:22.919Z,43.80
2018-05-23T22:44:50.440Z,43.90
2018-05-23T22:47:18.713Z,45.50
2018-05-23T22:49:46.222Z,45.40
2018-05-23T22:52:14.512Z,44.20
2018-05-23T22:54:42.032Z,44.20
2018-05-23T22:57:09.554Z,43.80
2018-05-23T22:59:37.075Z,44.20
2018-05-23T23:02:05.359Z,43.90
2018-05-23T23:04:32.877Z,43.90
2018-05-23T23:07:00.391Z,43.40
2018-05-23T23:09:27.903Z,43.90
2018-05-23T23:11:55.411Z,44.00
2018-05-23T23:14:22.927Z,43.60
2018-05-23T23:16:50.465Z,42.80
2018-05-23T23:19:17.992Z,44.10
2018-05-23T23:21:45.936Z,44.10
2018-05-23T23:24:14.067Z,45.10
2018-05-23T23:26:42.576Z,44.80
2018-05-23T23:29:10.824Z,44.50
2018-05-23T23:31:38.332Z,43.50
2018-05-23T23:34:06.307Z,44.40
2018-05-23T23:36:34.360Z,43.80
2018-05-23T23:39:02.663Z,43.20
2018-05-23T23:41:30.971Z,43.50
2018-05-23T23:43:58.515Z,43.50
2018-05-23T23:46:26.135Z,43.60
2018-05-23T23:48:54.501Z,43.10
2018-05-23T23:51:22.043Z,43.10
2018-05-23T23:53:50.410Z,43.50
2018-05-23T23:56:18.007Z,43.20
2018-05-23T23:58:46.764Z,42.50
